Time;durP1;ratioP1;P1;durP2;ratioP2;P2;SDS_P1;SDS_P2;PMS_P1;PMS_P2;Temp;Humidity;BMP_temperature;BMP_pressure;BME280_temperature;BME280_humidity;BME280_pressure;Samples;Min_cycle;Max_cycle;Signal;HPM_P1;HPM_P2
2022/09/26 00:00:33;;;;;;;9.85;3.00;;;20.20;62.90;;;;;;5043006;28;20127;-57
2022/09/26 00:02:59;;;;;;;8.98;2.67;;;20.20;63.00;;;;;;5045882;28;20206;-57
2022/09/26 00:05:25;;;;;;;10.27;3.20;;;20.20;62.90;;;;;;5045409;28;20041;-57
2022/09/26 00:07:50;;;;;;;9.90;2.80;;;20.20;63.00;;;;;;5045024;28;20454;-57
2022/09/26 00:10:16;;;;;;;11.43;3.40;;;20.20;62.90;;;;;;5046600;28;20036;-57
2022/09/26 00:12:42;;;;;;;10.90;3.33;;;20.20;63.10;;;;;;5044882;28;20029;-57
2022/09/26 00:15:08;;;;;;;10.35;3.20;;;20.20;63.10;;;;;;5040600;28;20125;-57
2022/09/26 00:17:34;;;;;;;11.05;2.75;;;20.10;62.90;;;;;;5038545;28;20040;-57
2022/09/26 00:19:59;;;;;;;12.38;3.20;;;20.10;63.00;;;;;;5045112;28;20103;-57
2022/09/26 00:22:25;;;;;;;10.10;3.10;;;20.10;62.90;;;;;;5043596;28;20401;-57
2022/09/26 00:24:51;;;;;;;12.43;3.60;;;20.10;62.90;;;;;;5044851;28;20036;-57
2022/09/26 00:27:18;;;;;;;10.07;2.83;;;20.10;62.90;;;;;;5048610;28;20179;-57
2022/09/26 00:29:44;;;;;;;8.82;2.80;;;20.10;63.00;;;;;;5047960;28;20497;-57
2022/09/26 00:32:10;;;;;;;9.38;2.90;;;20.10;63.00;;;;;;5046304;28;20021;-57
2022/09/26 00:34:35;;;;;;;10.10;2.90;;;20.10;63.00;;;;;;5047736;28;20159;-57
2022/09/26 00:37:01;;;;;;;9.95;3.28;;;20.10;63.00;;;;;;5048032;28;20115;-57
2022/09/26 00:39:27;;;;;;;9.73;3.20;;;20.10;63.10;;;;;;5048242;28;20040;-57
2022/09/26 00:41:52;;;;;;;11.90;3.13;;;20.10;63.10;;;;;;5049051;28;20033;-57
2022/09/26 00:44:42;;;;;;;10.25;2.88;;;20.10;63.10;;;;;;5048242;28;20047;-57
2022/09/26 00:47:38;;;;;;;8.63;2.90;;;20.00;63.00;;;;;;5042410;28;20029;-57
2022/09/26 00:50:09;;;;;;;9.20;2.90;;;20.00;63.10;;;;;;5073949;28;20827;-57
2022/09/26 00:53:00;;;;;;;8.80;2.90;;;20.00;63.10;;;;;;5047157;28;20029;-57
2022/09/26 00:55:29;;;;;;;11.02;2.90;;;20.00;63.10;;;;;;5047954;28;20489;-57
2022/09/26 00:58:04;;;;;;;8.05;2.83;;;20.00;63.20;;;;;;5046575;28;20078;-57
2022/09/26 01:00:29;;;;;;;8.63;2.65;;;20.00;63.20;;;;;;5045321;28;20410;-57
2022/09/26 01:02:55;;;;;;;9.70;3.13;;;20.00;63.10;;;;;;5048550;28;20087;-57
2022/09/26 01:05:21;;;;;;;8.23;2.83;;;20.00;63.20;;;;;;5045074;28;20028;-57
2022/09/26 01:07:47;;;;;;;8.30;2.72;;;20.00;63.20;;;;;;5070584;28;20029;-57
2022/09/26 01:10:14;;;;;;;9.88;3.50;;;19.90;63.20;;;;;;5046989;28;20033;-57
2022/09/26 01:12:40;;;;;;;8.13;2.50;;;19.90;63.20;;;;;;5049017;28;20089;-57
2022/09/26 01:15:07;;;;;;;8.38;2.47;;;20.00;63.20;;;;;;5046732;28;20025;-57
2022/09/26 01:17:34;;;;;;;9.85;2.75;;;20.00;63.20;;;;;;5047766;28;20033;-57
2022/09/26 01:20:03;;;;;;;8.27;2.67;;;19.90;63.20;;;;;;5044615;28;20021;-57
2022/09/26 01:22:47;;;;;;;10.07;2.78;;;19.90;63.20;;;;;;5044142;28;20043;-57
2022/09/26 01:25:37;;;;;;;8.40;2.53;;;20.00;63.30;;;;;;5030649;28;20021;-57
2022/09/26 01:28:05;;;;;;;9.43;2.95;;;19.90;63.30;;;;;;5046408;28;20074;-57
2022/09/26 01:30:43;;;;;;;10.48;2.95;;;19.90;63.30;;;;;;5046821;28;20031;-57
2022/09/26 01:33:34;;;;;;;8.45;2.53;;;19.90;63.30;;;;;;5058491;28;20025;-57
2022/09/26 01:36:04;;;;;;;8.80;2.53;;;19.90;63.30;;;;;;5043982;28;20404;-57
2022/09/26 01:38:36;;;;;;;8.60;2.58;;;19.90;63.30;;;;;;5043114;28;20024;-57
2022/09/26 01:41:32;;;;;;;8.55;2.58;;;19.90;63.20;;;;;;5044356;28;20029;-57
2022/09/26 01:44:17;;;;;;;7.97;2.40;;;19.90;63.30;;;;;;5045007;28;20033;-57
2022/09/26 01:47:21;;;;;;;8.30;2.70;;;19.90;63.30;;;;;;5045620;28;20103;-57
2022/09/26 01:49:58;;;;;;;7.30;2.60;;;19.90;63.20;;;;;;5047198;28;20028;-58
2022/09/26 01:52:53;;;;;;;8.57;2.85;;;19.90;63.30;;;;;;5045790;28;20032;-57
2022/09/26 01:55:23;;;;;;;8.75;2.75;;;19.90;63.30;;;;;;5042205;28;20029;-57
2022/09/26 01:58:11;;;;;;;10.80;2.70;;;19.80;63.40;;;;;;5044247;28;20619;-57
2022/09/26 02:00:37;;;;;;;8.30;2.50;;;19.80;63.30;;;;;;5046070;28;20422;-57
2022/09/26 02:03:04;;;;;;;8.40;2.50;;;19.80;63.30;;;;;;5046523;28;20029;-57
2022/09/26 02:05:35;;;;;;;7.45;2.40;;;19.80;63.30;;;;;;5029469;28;20543;-57
2022/09/26 02:08:05;;;;;;;7.45;2.40;;;19.80;63.30;;;;;;5028688;28;20113;-57
2022/09/26 02:10:37;;;;;;;7.15;2.53;;;19.80;63.30;;;;;;5042301;28;20527;-57
2022/09/26 02:13:13;;;;;;;9.25;2.90;;;19.80;63.20;;;;;;5028264;28;20470;-57
2022/09/26 02:15:39;;;;;;;8.48;2.35;;;19.80;63.20;;;;;;5054400;28;20021;-57
2022/09/26 02:18:14;;;;;;;7.93;2.40;;;19.80;63.40;;;;;;5045377;28;20048;-57
2022/09/26 02:20:42;;;;;;;7.55;2.50;;;19.80;63.20;;;;;;5043856;28;20032;-57
2022/09/26 02:23:07;;;;;;;8.88;2.58;;;19.80;63.30;;;;;;5045575;28;20028;-57
2022/09/26 02:25:33;;;;;;;7.05;2.50;;;19.70;63.30;;;;;;5046078;28;20464;-57
2022/09/26 02:27:59;;;;;;;6.03;2.20;;;19.80;63.20;;;;;;5043893;28;20424;-57
2022/09/26 02:30:25;;;;;;;7.18;2.22;;;19.70;63.20;;;;;;5043579;28;20021;-57
2022/09/26 02:32:51;;;;;;;7.35;2.53;;;19.70;63.10;;;;;;5044722;28;20058;-57
2022/09/26 02:38:01;;;;;;;6.47;2.28;;;19.70;63.20;;;;;;5044689;28;20142;-57
2022/09/26 02:40:41;;;;;;;7.88;2.30;;;19.70;63.20;;;;;;5045994;28;20045;-57
2022/09/26 02:43:27;;;;;;;6.80;2.28;;;19.70;63.20;;;;;;5042885;28;20033;-57
2022/09/26 02:46:17;;;;;;;8.77;2.85;;;19.70;63.30;;;;;;5043760;28;20111;-57
2022/09/26 02:49:10;;;;;;;7.43;2.30;;;19.70;63.30;;;;;;5004314;28;20085;-57
2022/09/26 02:51:40;;;;;;;8.70;2.58;;;19.70;63.30;;;;;;5004418;28;20064;-57
2022/09/26 02:54:34;;;;;;;6.90;2.22;;;19.70;63.30;;;;;;4988612;28;20053;-57
2022/09/26 02:57:12;;;;;;;5.93;2.15;;;19.70;63.30;;;;;;4997908;28;20184;-57
2022/09/26 02:59:52;;;;;;;7.43;2.50;;;19.70;63.40;;;;;;4986957;28;20077;-57
2022/09/26 03:02:29;;;;;;;7.55;2.47;;;19.70;63.70;;;;;;5012614;28;20089;-57
2022/09/26 03:05:00;;;;;;;8.02;2.30;;;19.70;63.30;;;;;;4986064;28;20550;-57
2022/09/26 03:08:04;;;;;;;8.07;2.42;;;19.70;63.30;;;;;;5009042;28;20077;-57
2022/09/26 03:10:30;;;;;;;8.77;2.33;;;19.70;63.40;;;;;;5004646;28;20069;-57
2022/09/26 03:12:59;;;;;;;7.63;2.25;;;19.70;63.30;;;;;;5003818;28;20117;-57
2022/09/26 03:15:25;;;;;;;6.70;2.40;;;19.70;63.30;;;;;;4986969;28;20038;-57
2022/09/26 03:17:52;;;;;;;5.82;2.28;;;19.60;63.40;;;;;;4988756;28;20514;-57
2022/09/26 03:20:19;;;;;;;6.78;2.03;;;19.60;63.30;;;;;;4982184;28;20044;-57
2022/09/26 03:22:44;;;;;;;6.97;2.20;;;19.60;63.30;;;;;;5004219;28;20146;-57
2022/09/26 03:25:21;;;;;;;7.72;2.40;;;19.60;63.40;;;;;;4999200;28;20121;-57
2022/09/26 03:27:47;;;;;;;6.28;1.80;;;19.60;63.30;;;;;;5052232;28;20041;-56
2022/09/26 03:30:13;;;;;;;7.82;2.25;;;19.60;63.40;;;;;;5041033;28;20375;-57
2022/09/26 03:32:39;;;;;;;5.95;2.03;;;19.60;63.30;;;;;;5044664;28;20038;-57
2022/09/26 03:35:06;;;;;;;6.85;2.70;;;19.60;63.30;;;;;;5045302;28;20039;-57
2022/09/26 03:37:33;;;;;;;5.68;2.10;;;19.60;63.40;;;;;;5041838;28;20033;-57
2022/09/26 03:40:04;;;;;;;6.03;1.90;;;19.60;63.30;;;;;;5045761;28;20024;-57
2022/09/26 03:42:32;;;;;;;5.15;1.98;;;19.60;63.40;;;;;;5045533;28;20036;-57
2022/09/26 03:44:58;;;;;;;7.22;2.08;;;19.60;63.40;;;;;;5045371;28;20036;-57
2022/09/26 03:47:24;;;;;;;6.45;2.00;;;19.60;63.40;;;;;;5040746;28;20071;-57
2022/09/26 03:49:49;;;;;;;5.63;2.00;;;19.50;63.20;;;;;;5044421;28;20029;-57
2022/09/26 03:52:15;;;;;;;8.07;2.55;;;19.50;63.30;;;;;;5045594;28;20044;-57
2022/09/26 03:54:41;;;;;;;7.53;2.28;;;19.60;63.20;;;;;;5041404;28;20033;-57
2022/09/26 03:57:13;;;;;;;6.53;2.38;;;19.50;63.20;;;;;;5045175;28;20575;-57
2022/09/26 03:59:38;;;;;;;6.60;1.92;;;19.50;63.20;;;;;;5047745;28;20517;-57
2022/09/26 04:02:04;;;;;;;5.68;2.08;;;19.50;63.20;;;;;;5046529;28;20160;-57
2022/09/26 04:04:31;;;;;;;6.88;2.70;;;19.50;63.20;;;;;;5049069;28;20380;-57
2022/09/26 04:06:57;;;;;;;5.78;2.00;;;19.50;63.30;;;;;;5041231;28;20562;-57
2022/09/26 04:09:23;;;;;;;5.90;2.15;;;19.50;63.20;;;;;;5050424;28;20029;-57
2022/09/26 04:11:50;;;;;;;6.22;2.20;;;19.50;63.30;;;;;;5047575;28;20032;-57
2022/09/26 04:14:16;;;;;;;7.95;2.15;;;19.50;63.20;;;;;;5044607;28;20025;-57
2022/09/26 04:16:43;;;;;;;7.75;2.60;;;19.50;63.20;;;;;;5043198;28;20489;-57
2022/09/26 04:19:11;;;;;;;6.35;2.20;;;19.50;63.20;;;;;;5043388;28;20017;-58
2022/09/26 04:21:39;;;;;;;6.38;1.90;;;19.50;63.20;;;;;;5047807;28;20497;-57
2022/09/26 04:24:05;;;;;;;5.57;1.88;;;19.50;63.20;;;;;;5045247;28;20025;-58
2022/09/26 04:26:31;;;;;;;8.10;2.28;;;19.50;63.30;;;;;;5041290;28;20488;-58
2022/09/26 04:28:57;;;;;;;7.05;2.38;;;19.50;63.50;;;;;;5046956;28;20116;-57
2022/09/26 04:31:26;;;;;;;7.65;2.38;;;19.50;63.70;;;;;;5048424;28;20069;-58
2022/09/26 04:33:53;;;;;;;16.02;3.63;;;19.50;63.90;;;;;;5047002;28;20021;-58
2022/09/26 04:36:19;;;;;;;14.48;3.83;;;19.50;64.70;;;;;;5047907;28;20378;-57
2022/09/26 04:38:44;;;;;;;15.77;3.45;;;19.50;64.60;;;;;;5044577;28;20031;-57
2022/09/26 04:41:20;;;;;;;14.35;3.33;;;19.50;64.70;;;;;;5043172;28;20049;-58
2022/09/26 04:43:46;;;;;;;11.68;3.20;;;19.50;64.60;;;;;;5041659;28;20047;-58
2022/09/26 04:46:17;;;;;;;12.23;3.35;;;19.50;64.70;;;;;;5043765;28;20858;-58
2022/09/26 04:48:43;;;;;;;10.63;3.00;;;19.50;64.40;;;;;;5043462;28;20068;-58
2022/09/26 04:51:10;;;;;;;11.13;3.22;;;19.50;64.40;;;;;;5040820;28;20482;-58
2022/09/26 04:53:37;;;;;;;11.80;3.20;;;19.40;64.30;;;;;;5048438;28;20380;-57
2022/09/26 04:56:03;;;;;;;11.75;3.05;;;19.40;64.30;;;;;;5043172;28;20086;-58
2022/09/26 04:58:29;;;;;;;12.27;3.20;;;19.50;64.40;;;;;;5044351;28;20024;-58
2022/09/26 05:00:54;;;;;;;9.77;3.22;;;19.40;64.30;;;;;;5045782;28;20045;-58
2022/09/26 05:03:20;;;;;;;10.52;2.95;;;19.40;64.40;;;;;;5045530;28;20450;-58
2022/09/26 05:05:46;;;;;;;12.35;3.70;;;19.40;64.40;;;;;;5046904;28;20497;-58
2022/09/26 05:08:12;;;;;;;15.15;3.45;;;19.40;65.00;;;;;;5045799;28;20029;-58
2022/09/26 05:10:39;;;;;;;14.93;3.80;;;19.40;65.60;;;;;;5040261;28;20040;-57
2022/09/26 05:13:04;;;;;;;15.93;3.45;;;19.40;65.60;;;;;;5045525;28;20063;-58
2022/09/26 05:15:30;;;;;;;12.85;3.40;;;19.40;65.70;;;;;;5044763;28;20037;-57
2022/09/26 05:17:58;;;;;;;9.50;3.17;;;19.40;65.40;;;;;;5043693;28;20064;-57
2022/09/26 05:20:27;;;;;;;11.85;3.53;;;19.40;65.40;;;;;;5046121;28;20111;-57
2022/09/26 05:22:56;;;;;;;15.52;3.83;;;19.50;65.70;;;;;;5048053;28;20039;-57
2022/09/26 05:28:06;;;;;;;11.43;3.40;;;19.40;65.60;;;;;;5047644;28;20090;-57
2022/09/26 05:30:33;;;;;;;10.48;3.47;;;19.40;65.80;;;;;;5045366;28;20452;-57
2022/09/26 05:32:59;;;;;;;12.63;3.20;;;19.40;65.70;;;;;;5047386;28;20498;-57
2022/09/26 05:35:26;;;;;;;14.90;3.47;;;19.40;65.70;;;;;;5043927;28;20033;-57
2022/09/26 05:37:58;;;;;;;9.00;3.25;;;19.40;65.60;;;;;;5044950;28;20036;-58
2022/09/26 05:43:09;;;;;;;11.90;3.08;;;19.40;65.70;;;;;;5048357;28;20110;-58
2022/09/26 05:45:35;;;;;;;17.50;3.53;;;19.40;65.60;;;;;;5046573;28;20056;-57
2022/09/26 05:48:01;;;;;;;10.40;3.13;;;19.40;65.60;;;;;;5044827;28;20064;-57
2022/09/26 05:50:26;;;;;;;9.10;3.08;;;19.40;65.60;;;;;;5047609;28;20513;-58
2022/09/26 05:52:56;;;;;;;12.65;3.50;;;19.40;65.60;;;;;;5047152;28;20500;-57
2022/09/26 05:55:23;;;;;;;11.43;3.17;;;19.40;65.60;;;;;;5047027;28;20029;-57
2022/09/26 05:57:52;;;;;;;10.27;3.10;;;19.40;65.50;;;;;;5047092;28;20029;-58
2022/09/26 06:00:18;;;;;;;13.55;3.20;;;19.40;65.60;;;;;;5047173;28;20041;-58
2022/09/26 06:02:43;;;;;;;10.50;2.85;;;19.30;65.60;;;;;;5047891;28;20028;-58
2022/09/26 06:05:09;;;;;;;12.00;2.90;;;19.40;65.60;;;;;;5042959;28;20451;-57
2022/09/26 06:07:35;;;;;;;12.73;3.03;;;19.40;65.60;;;;;;5047164;28;20036;-58
2022/09/26 06:10:04;;;;;;;12.60;3.30;;;19.30;65.50;;;;;;5047107;28;20481;-58
2022/09/26 06:12:30;;;;;;;10.35;2.92;;;19.40;66.70;;;;;;5048007;28;20021;-58
2022/09/26 06:14:55;;;;;;;14.48;3.20;;;19.40;65.70;;;;;;5046130;28;20037;-58
2022/09/26 06:17:21;;;;;;;11.32;3.22;;;19.30;65.60;;;;;;5042941;28;20032;-58
2022/09/26 06:19:47;;;;;;;12.60;2.85;;;19.30;65.70;;;;;;5046842;28;20056;-57
2022/09/26 06:22:12;;;;;;;16.70;3.05;;;19.30;66.70;;;;;;5046481;28;20059;-58
2022/09/26 06:24:38;;;;;;;8.90;3.08;;;19.30;65.70;;;;;;5045640;28;20509;-58
2022/09/26 06:27:04;;;;;;;9.25;2.75;;;19.30;65.60;;;;;;5046478;28;20032;-58
2022/09/26 06:29:29;;;;;;;12.23;3.10;;;19.30;65.60;;;;;;5045550;28;20029;-58
2022/09/26 06:31:55;;;;;;;8.63;3.00;;;19.30;65.60;;;;;;5046666;28;20064;-58
2022/09/26 06:34:21;;;;;;;10.55;2.85;;;19.30;65.60;;;;;;5042465;28;20055;-58
2022/09/26 06:36:46;;;;;;;10.25;3.03;;;19.30;65.60;;;;;;5047098;28;20028;-57
2022/09/26 06:39:13;;;;;;;11.98;3.13;;;19.30;65.60;;;;;;5046329;28;20017;-57
2022/09/26 06:41:39;;;;;;;9.60;3.00;;;19.30;65.50;;;;;;5046388;28;20049;-58
2022/09/26 06:44:04;;;;;;;8.73;2.70;;;19.30;65.50;;;;;;5046338;28;20491;-58
2022/09/26 06:46:30;;;;;;;12.30;2.83;;;19.30;65.50;;;;;;5046426;28;20052;-58
2022/09/26 06:48:56;;;;;;;9.00;2.88;;;19.20;65.60;;;;;;5045418;28;20421;-58
2022/09/26 06:51:22;;;;;;;11.82;2.83;;;19.30;65.50;;;;;;5041164;28;20033;-57
2022/09/26 06:53:47;;;;;;;10.93;2.95;;;19.20;65.40;;;;;;5046462;28;20025;-57
2022/09/26 06:56:13;;;;;;;9.60;2.90;;;19.20;65.50;;;;;;5046026;28;20040;-58
2022/09/26 06:58:39;;;;;;;7.80;2.53;;;19.30;65.60;;;;;;5041283;28;20029;-58
2022/09/26 07:01:07;;;;;;;10.07;2.83;;;19.20;65.50;;;;;;5046418;28;20472;-57
2022/09/26 07:03:33;;;;;;;8.25;2.63;;;19.20;65.60;;;;;;5045715;28;20048;-58
2022/09/26 07:05:58;;;;;;;9.85;3.00;;;19.20;65.50;;;;;;5045391;28;20034;-58
2022/09/26 07:08:26;;;;;;;9.10;2.60;;;19.20;65.50;;;;;;5044783;28;20029;-58
2022/09/26 07:10:52;;;;;;;8.45;2.67;;;19.20;65.50;;;;;;5045818;28;20033;-58
2022/09/26 07:13:18;;;;;;;8.15;2.28;;;19.20;65.50;;;;;;5046179;28;20059;-58
2022/09/26 07:15:44;;;;;;;8.90;2.88;;;19.20;65.60;;;;;;5044620;28;20453;-58
2022/09/26 07:18:10;;;;;;;10.20;2.42;;;19.20;65.50;;;;;;5067006;28;20035;-57
2022/09/26 07:20:39;;;;;;;8.10;2.38;;;19.20;66.00;;;;;;5043813;28;20037;-57
2022/09/26 07:23:05;;;;;;;8.60;2.67;;;19.20;65.80;;;;;;5043394;28;20033;-58
2022/09/26 07:25:32;;;;;;;8.70;2.53;;;19.20;65.70;;;;;;5044349;28;20860;-58
2022/09/26 07:27:57;;;;;;;8.00;2.25;;;19.20;65.90;;;;;;5045515;28;20037;-58
2022/09/26 07:30:23;;;;;;;8.52;2.53;;;19.20;65.90;;;;;;5067396;28;20040;-57
2022/09/26 07:32:49;;;;;;;7.90;2.47;;;19.20;66.10;;;;;;5043477;28;20028;-58
2022/09/26 07:35:17;;;;;;;9.85;2.42;;;19.20;66.00;;;;;;5046933;28;20032;-58
2022/09/26 07:37:45;;;;;;;8.95;2.20;;;19.20;66.10;;;;;;5048524;28;20041;-58
2022/09/26 07:40:10;;;;;;;8.00;2.42;;;19.20;66.10;;;;;;5047617;28;20078;-58
2022/09/26 07:42:40;;;;;;;9.18;2.40;;;19.20;66.00;;;;;;5046066;28;20037;-58
2022/09/26 07:45:08;;;;;;;8.18;2.35;;;19.20;66.10;;;;;;5048847;28;20065;-58
2022/09/26 07:50:18;;;;;;;7.05;2.05;;;19.20;66.20;;;;;;5044572;28;20028;-58
2022/09/26 07:52:48;;;;;;;8.73;2.50;;;19.20;66.10;;;;;;5049250;28;20041;-58
2022/09/26 07:55:18;;;;;;;7.30;2.20;;;19.20;66.20;;;;;;5049016;28;20025;-58
2022/09/26 07:57:45;;;;;;;7.80;2.35;;;19.20;66.10;;;;;;5048968;28;20037;-58
2022/09/26 08:00:15;;;;;;;9.00;2.25;;;19.20;66.20;;;;;;5049318;28;20052;-58
2022/09/26 08:02:43;;;;;;;7.00;2.33;;;19.20;66.10;;;;;;5049381;28;20049;-58
2022/09/26 08:05:09;;;;;;;7.72;2.40;;;19.20;66.10;;;;;;5048396;28;20386;-58
2022/09/26 08:07:35;;;;;;;7.38;2.47;;;19.20;66.10;;;;;;5049607;28;20083;-58
2022/09/26 08:10:01;;;;;;;7.15;2.28;;;19.20;66.20;;;;;;5048101;28;20029;-58
2022/09/26 08:12:28;;;;;;;6.65;2.13;;;19.20;66.20;;;;;;5048736;28;20033;-58
2022/09/26 08:14:57;;;;;;;6.10;2.15;;;19.20;66.10;;;;;;5046329;28;20040;-58
2022/09/26 08:17:23;;;;;;;6.68;2.17;;;19.10;65.90;;;;;;5047789;28;20052;-58
2022/09/26 08:19:49;;;;;;;7.90;2.42;;;19.20;66.00;;;;;;5049449;28;20548;-58
2022/09/26 08:22:14;;;;;;;8.30;2.40;;;19.20;66.00;;;;;;5049831;28;20109;-58
2022/09/26 08:24:40;;;;;;;6.70;2.05;;;19.10;66.00;;;;;;5051773;28;20024;-58
2022/09/26 08:27:06;;;;;;;6.47;1.95;;;19.10;66.20;;;;;;5045587;28;20047;-58
2022/09/26 08:29:33;;;;;;;7.13;2.00;;;19.10;66.10;;;;;;5048030;28;20032;-58
2022/09/26 08:32:01;;;;;;;5.35;1.73;;;19.20;66.20;;;;;;5047163;28;20028;-58
2022/09/26 08:34:27;;;;;;;6.95;2.05;;;19.20;66.20;;;;;;5048040;28;20021;-59
2022/09/26 08:36:58;;;;;;;6.63;2.35;;;19.10;66.10;;;;;;5044406;28;20045;-58
2022/09/26 08:39:24;;;;;;;8.30;2.58;;;19.10;66.00;;;;;;5048401;28;20025;-58
2022/09/26 08:42:01;;;;;;;7.70;1.92;;;19.10;66.00;;;;;;5048196;28;20041;-58
2022/09/26 08:44:52;;;;;;;7.15;2.20;;;19.10;66.00;;;;;;5047751;28;20834;-58
2022/09/26 08:47:32;;;;;;;7.28;2.42;;;19.10;66.20;;;;;;5046271;28;20045;-58
2022/09/26 08:50:31;;;;;;;5.82;2.05;;;19.10;66.10;;;;;;5044464;28;20029;-58
2022/09/26 08:53:04;;;;;;;7.28;2.28;;;19.10;66.10;;;;;;5046575;28;20074;-58
2022/09/26 08:55:36;;;;;;;5.88;1.80;;;19.10;66.10;;;;;;5049728;28;20033;-58
2022/09/26 08:58:22;;;;;;;4.95;1.70;;;19.10;66.10;;;;;;5047729;28;20033;-58
2022/09/26 09:00:50;;;;;;;7.72;2.08;;;19.10;66.10;;;;;;5046808;28;20049;-58
2022/09/26 09:03:28;;;;;;;5.07;1.70;;;19.20;66.20;;;;;;5047608;28;20024;-58
2022/09/26 09:06:06;;;;;;;7.80;2.20;;;19.20;66.10;;;;;;5045256;28;20028;-58
2022/09/26 09:08:37;;;;;;;5.65;2.10;;;19.20;66.30;;;;;;5049530;28;20086;-59
2022/09/26 09:11:34;;;;;;;7.20;2.20;;;19.20;66.20;;;;;;5049081;28;20813;-58
2022/09/26 09:14:51;;;;;;;7.50;2.30;;;19.20;66.30;;;;;;5047131;28;20087;-58
2022/09/26 09:17:39;;;;;;;5.93;1.90;;;19.30;66.60;;;;;;5003181;28;20545;-58
2022/09/26 09:20:33;;;;;;;8.55;2.40;;;19.20;66.40;;;;;;4990277;28;20030;-58
2022/09/26 09:23:17;;;;;;;7.30;2.08;;;19.20;66.40;;;;;;4987048;28;20040;-58
2022/09/26 09:26:05;;;;;;;6.03;2.03;;;19.20;66.40;;;;;;4990631;28;20064;-58
2022/09/26 09:28:45;;;;;;;8.90;2.40;;;19.20;66.40;;;;;;4990342;28;20061;-58
2022/09/26 09:31:12;;;;;;;7.63;2.13;;;19.20;66.30;;;;;;4988644;28;20545;-57
2022/09/26 09:33:43;;;;;;;5.80;1.70;;;19.30;66.40;;;;;;4986986;28;20034;-58
2022/09/26 09:36:25;;;;;;;7.50;1.90;;;19.20;66.40;;;;;;4988004;28;20034;-58
2022/09/26 09:38:51;;;;;;;5.10;1.80;;;19.20;66.40;;;;;;5002467;28;20112;-58
2022/09/26 09:41:24;;;;;;;9.05;2.47;;;19.30;66.30;;;;;;4988737;28;20030;-59
2022/09/26 09:43:53;;;;;;;7.72;1.88;;;19.30;66.30;;;;;;4990062;28;20045;-58
2022/09/26 09:46:27;;;;;;;5.82;2.05;;;19.30;66.40;;;;;;4989647;28;20042;-58
2022/09/26 09:49:08;;;;;;;6.30;1.83;;;19.30;66.30;;;;;;5002326;28;20065;-60
2022/09/26 09:51:39;;;;;;;7.57;2.15;;;19.30;66.40;;;;;;5006308;28;20025;-58
2022/09/26 09:54:24;;;;;;;6.70;2.10;;;19.30;66.40;;;;;;5047628;28;20059;-59
2022/09/26 09:57:06;;;;;;;6.28;1.83;;;19.30;66.40;;;;;;5046261;28;20565;-59
2022/09/26 10:00:15;;;;;;;6.95;2.13;;;19.30;66.30;;;;;;5049122;28;20090;-58
2022/09/26 10:03:18;;;;;;;7.63;1.88;;;19.30;66.30;;;;;;4985537;28;20041;-58
2022/09/26 10:05:50;;;;;;;6.18;1.80;;;19.30;66.30;;;;;;5004757;28;20061;-58
2022/09/26 10:08:21;;;;;;;6.55;2.20;;;19.30;66.30;;;;;;4988475;28;20069;-59
2022/09/26 10:11:11;;;;;;;5.57;1.83;;;19.30;66.10;;;;;;5004665;28;20026;-58
2022/09/26 10:13:41;;;;;;;6.82;1.83;;;19.30;67.30;;;;;;5004820;28;20121;-58
2022/09/26 10:16:08;;;;;;;6.20;1.60;;;19.30;66.30;;;;;;5016923;28;20076;-58
2022/09/26 10:18:55;;;;;;;6.97;1.80;;;19.30;66.40;;;;;;5004973;28;20029;-58
2022/09/26 10:21:20;;;;;;;7.80;2.05;;;19.40;66.50;;;;;;5003058;28;20109;-59
2022/09/26 10:23:48;;;;;;;5.35;1.90;;;19.30;66.40;;;;;;4989007;28;20030;-59
2022/09/26 10:26:14;;;;;;;6.55;2.00;;;19.40;66.60;;;;;;4984640;28;20042;-58
2022/09/26 10:28:43;;;;;;;8.50;1.80;;;19.40;66.70;;;;;;4986796;28;20181;-58
2022/09/26 10:31:10;;;;;;;5.18;1.80;;;19.40;66.70;;;;;;4987519;28;20029;-58
2022/09/26 10:33:43;;;;;;;10.68;1.90;;;19.40;66.70;;;;;;5040448;28;20398;-58
2022/09/26 10:36:20;;;;;;;6.15;1.83;;;19.40;66.70;;;;;;5041912;28;20040;-58
2022/09/26 10:41:43;;;;;;;6.45;1.90;;;19.50;66.40;;;;;;5046916;28;20043;-58
2022/09/26 10:44:24;;;;;;;11.10;2.03;;;19.50;66.50;;;;;;5048482;28;20031;-59
2022/09/26 10:46:52;;;;;;;6.38;1.67;;;19.50;66.60;;;;;;5049056;28;20051;-59
2022/09/26 10:49:20;;;;;;;5.28;1.83;;;19.50;66.60;;;;;;5046718;28;20021;-59
2022/09/26 10:52:15;;;;;;;7.88;1.95;;;19.60;66.50;;;;;;5046517;28;20036;-59
2022/09/26 10:54:56;;;;;;;6.70;1.73;;;19.60;66.50;;;;;;5039498;28;20090;-58
2022/09/26 10:57:28;;;;;;;5.30;1.63;;;19.60;66.30;;;;;;5040315;28;20035;-58
2022/09/26 10:59:55;;;;;;;5.68;1.80;;;19.60;66.20;;;;;;5043286;28;20055;-59
2022/09/26 11:02:21;;;;;;;6.75;1.77;;;19.60;66.30;;;;;;5045706;28;20033;-59
2022/09/26 11:07:36;;;;;;;5.68;1.85;;;19.60;66.40;;;;;;5031544;28;20072;-58
2022/09/26 11:10:07;;;;;;;8.85;1.80;;;19.60;66.20;;;;;;5042720;28;20029;-59
2022/09/26 11:12:38;;;;;;;5.22;1.63;;;19.70;66.20;;;;;;5043614;28;20048;-58
2022/09/26 11:15:09;;;;;;;6.10;1.60;;;19.70;66.10;;;;;;5043103;28;20065;-59
2022/09/26 11:17:46;;;;;;;6.28;1.92;;;19.70;66.10;;;;;;5052823;28;20385;-59
2022/09/26 11:20:33;;;;;;;6.45;1.90;;;19.70;65.90;;;;;;5046403;28;20033;-59
2022/09/26 11:23:12;;;;;;;7.25;1.45;;;19.70;66.00;;;;;;5045809;28;20033;-59
2022/09/26 11:26:03;;;;;;;5.65;1.80;;;19.70;66.00;;;;;;5045385;28;20640;-59
2022/09/26 11:28:39;;;;;;;4.00;1.50;;;19.70;66.00;;;;;;5045397;28;20032;-59
2022/09/26 11:31:16;;;;;;;10.07;1.90;;;19.70;66.00;;;;;;5040768;28;20029;-59
2022/09/26 11:33:43;;;;;;;5.82;1.98;;;19.70;66.10;;;;;;5022888;28;20043;-59
2022/09/26 11:37:02;;;;;;;5.93;1.70;;;19.70;66.10;;;;;;5044094;28;20116;-59
2022/09/26 11:39:43;;;;;;;4.65;1.58;;;19.70;66.00;;;;;;5003327;28;20128;-59
2022/09/26 11:42:15;;;;;;;6.85;1.65;;;19.70;65.90;;;;;;5004237;28;20550;-59
2022/09/26 11:44:57;;;;;;;5.32;1.70;;;19.70;66.00;;;;;;5004117;28;20030;-59
2022/09/26 11:47:28;;;;;;;6.35;1.98;;;19.70;65.90;;;;;;4999862;28;20113;-58
2022/09/26 11:50:14;;;;;;;4.47;1.50;;;19.80;65.90;;;;;;5001040;28;20112;-59
2022/09/26 11:52:56;;;;;;;8.90;1.85;;;19.80;66.00;;;;;;4987078;28;20030;-59
2022/09/26 11:55:36;;;;;;;7.10;1.80;;;19.80;66.00;;;;;;5001545;28;20034;-59
2022/09/26 11:58:26;;;;;;;6.18;1.70;;;19.80;65.80;;;;;;5012976;28;20092;-58
2022/09/26 12:00:57;;;;;;;6.85;2.00;;;19.80;65.80;;;;;;5004538;28;20519;-59
2022/09/26 12:03:35;;;;;;;6.88;1.63;;;19.80;65.70;;;;;;5003494;28;20030;-59
2022/09/26 12:06:26;;;;;;;5.68;1.65;;;19.90;65.80;;;;;;4986052;28;20108;-59
2022/09/26 12:09:04;;;;;;;7.60;2.10;;;19.90;66.40;;;;;;4986968;28;20048;-59
2022/09/26 12:11:51;;;;;;;5.28;1.83;;;20.00;65.90;;;;;;5003697;28;20065;-58
2022/09/26 12:14:41;;;;;;;5.53;1.77;;;20.10;65.70;;;;;;5021694;28;20456;-58
2022/09/26 12:17:20;;;;;;;4.05;1.67;;;20.10;65.50;;;;;;5042437;28;20029;-58
2022/09/26 12:20:12;;;;;;;5.00;1.67;;;20.20;65.60;;;;;;5055441;28;20022;-59
2022/09/26 12:22:50;;;;;;;6.63;1.85;;;20.30;65.50;;;;;;5046824;28;20040;-58
2022/09/26 12:25:54;;;;;;;6.35;2.00;;;20.40;65.20;;;;;;5033678;28;20044;-58
2022/09/26 12:28:35;;;;;;;6.47;1.90;;;20.40;65.10;;;;;;5047077;28;20540;-58
2022/09/26 12:31:11;;;;;;;4.03;1.55;;;20.50;65.10;;;;;;5046692;28;20109;-58
2022/09/26 12:33:55;;;;;;;6.55;1.90;;;20.50;64.70;;;;;;5047783;28;20678;-59
2022/09/26 12:36:30;;;;;;;7.87;1.90;;;20.50;64.70;;;;;;5047186;28;20040;-58
2022/09/26 12:39:11;;;;;;;7.55;1.73;;;20.60;64.50;;;;;;5046728;28;20033;-58
2022/09/26 12:41:43;;;;;;;5.97;1.70;;;20.70;64.40;;;;;;5053562;28;20517;-59
2022/09/26 12:44:30;;;;;;;6.00;1.60;;;20.70;64.30;;;;;;5047755;28;20035;-60
2022/09/26 12:47:37;;;;;;;6.63;1.70;;;20.70;64.50;;;;;;5046405;28;20136;-61
2022/09/26 12:50:11;;;;;;;7.95;1.80;;;20.70;64.40;;;;;;5020415;28;20510;-59
2022/09/26 12:52:50;;;;;;;7.88;1.90;;;20.80;64.30;;;;;;5024375;28;20033;-59
2022/09/26 12:55:42;;;;;;;6.93;1.95;;;20.80;64.40;;;;;;5019229;28;20051;-58
2022/09/26 12:58:27;;;;;;;8.50;1.85;;;20.80;64.20;;;;;;5015238;28;20037;-59
2022/09/26 13:01:15;;;;;;;8.13;1.83;;;20.90;64.10;;;;;;5023011;28;20072;-58
2022/09/26 13:03:59;;;;;;;6.78;2.03;;;20.90;64.00;;;;;;5017323;28;20029;-58
2022/09/26 13:06:36;;;;;;;9.85;2.03;;;21.00;63.90;;;;;;5015972;28;20029;-59
2022/09/26 13:09:47;;;;;;;10.45;2.10;;;21.10;64.00;;;;;;5020393;28;20025;-58
2022/09/26 13:12:57;;;;;;;8.40;2.30;;;21.10;63.90;;;;;;4976940;28;20046;-58
2022/09/26 13:15:42;;;;;;;8.68;2.50;;;21.20;63.90;;;;;;4971361;28;20100;-58
2022/09/26 13:18:13;;;;;;;8.50;1.95;;;21.20;63.90;;;;;;4954825;28;20147;-59
2022/09/26 13:20:51;;;;;;;8.23;2.30;;;21.20;63.80;;;;;;4961093;28;20050;-59
2022/09/26 13:23:33;;;;;;;7.88;2.17;;;21.20;63.70;;;;;;4953121;28;20040;-59
2022/09/26 13:26:07;;;;;;;9.25;2.10;;;21.20;63.70;;;;;;4935066;28;20118;-58
2022/09/26 13:28:40;;;;;;;10.98;2.40;;;21.20;63.50;;;;;;4938161;28;20102;-59
2022/09/26 13:31:29;;;;;;;7.70;1.90;;;21.20;63.60;;;;;;4959188;28;20027;-59